sensor_id;sensor_type;location;lat;lon;timestamp;temperature;humidity
68439;SHT31;55421;51.600;5.718;2024-03-22T00:02:09;12.74;78.96
68439;SHT31;55421;51.600;5.718;2024-03-22T00:04:36;12.74;79.05
68439;SHT31;55421;51.600;5.718;2024-03-22T00:07:03;12.74;79.18
68439;SHT31;55421;51.600;5.718;2024-03-22T00:09:30;12.73;79.23
68439;SHT31;55421;51.600;5.718;2024-03-22T00:11:56;12.73;79.29
68439;SHT31;55421;51.600;5.718;2024-03-22T00:14:23;12.75;79.37
68439;SHT31;55421;51.600;5.718;2024-03-22T00:16:50;12.74;79.42
68439;SHT31;55421;51.600;5.718;2024-03-22T00:19:16;12.75;79.51
68439;SHT31;55421;51.600;5.718;2024-03-22T00:21:43;12.74;79.58
68439;SHT31;55421;51.600;5.718;2024-03-22T00:24:09;12.75;79.69
68439;SHT31;55421;51.600;5.718;2024-03-22T00:26:36;12.76;79.75
68439;SHT31;55421;51.600;5.718;2024-03-22T00:29:02;12.77;79.80
68439;SHT31;55421;51.600;5.718;2024-03-22T00:31:29;12.78;79.80
68439;SHT31;55421;51.600;5.718;2024-03-22T00:33:55;12.81;79.89
68439;SHT31;55421;51.600;5.718;2024-03-22T00:36:21;12.82;79.90
68439;SHT31;55421;51.600;5.718;2024-03-22T00:38:48;12.83;79.91
68439;SHT31;55421;51.600;5.718;2024-03-22T00:41:14;12.86;79.98
68439;SHT31;55421;51.600;5.718;2024-03-22T00:43:40;12.87;80.00
68439;SHT31;55421;51.600;5.718;2024-03-22T00:46:07;12.89;79.96
68439;SHT31;55421;51.600;5.718;2024-03-22T00:48:33;12.90;79.99
68439;SHT31;55421;51.600;5.718;2024-03-22T00:51:01;12.92;80.01
68439;SHT31;55421;51.600;5.718;2024-03-22T00:53:29;12.93;80.03
68439;SHT31;55421;51.600;5.718;2024-03-22T00:55:56;12.94;80.03
68439;SHT31;55421;51.600;5.718;2024-03-22T00:58:25;12.96;80.08
68439;SHT31;55421;51.600;5.718;2024-03-22T01:00:54;12.97;80.09
68439;SHT31;55421;51.600;5.718;2024-03-22T01:03:21;12.98;80.10
68439;SHT31;55421;51.600;5.718;2024-03-22T01:05:48;13.00;80.09
68439;SHT31;55421;51.600;5.718;2024-03-22T01:08:14;13.00;80.08
68439;SHT31;55421;51.600;5.718;2024-03-22T01:10:41;13.01;80.10
68439;SHT31;55421;51.600;5.718;2024-03-22T01:13:07;13.01;80.07
68439;SHT31;55421;51.600;5.718;2024-03-22T01:15:34;12.99;80.09
68439;SHT31;55421;51.600;5.718;2024-03-22T01:18:01;12.98;80.10
68439;SHT31;55421;51.600;5.718;2024-03-22T01:20:28;12.99;80.13
68439;SHT31;55421;51.600;5.718;2024-03-22T01:22:55;12.99;80.19
68439;SHT31;55421;51.600;5.718;2024-03-22T01:25:21;12.98;80.23
68439;SHT31;55421;51.600;5.718;2024-03-22T01:27:47;12.98;80.25
68439;SHT31;55421;51.600;5.718;2024-03-22T01:30:14;12.98;80.30
68439;SHT31;55421;51.600;5.718;2024-03-22T01:32:40;12.96;80.38
68439;SHT31;55421;51.600;5.718;2024-03-22T01:35:07;12.97;80.40
68439;SHT31;55421;51.600;5.718;2024-03-22T01:37:34;12.98;80.40
68439;SHT31;55421;51.600;5.718;2024-03-22T01:40:00;12.98;80.47
68439;SHT31;55421;51.600;5.718;2024-03-22T01:42:27;12.99;80.49
68439;SHT31;55421;51.600;5.718;2024-03-22T01:44:53;12.98;80.49
68439;SHT31;55421;51.600;5.718;2024-03-22T01:47:20;12.97;80.49
68439;SHT31;55421;51.600;5.718;2024-03-22T01:49:46;12.97;80.51
68439;SHT31;55421;51.600;5.718;2024-03-22T01:52:16;12.96;80.59
68439;SHT31;55421;51.600;5.718;2024-03-22T01:54:43;12.94;80.58
68439;SHT31;55421;51.600;5.718;2024-03-22T01:57:09;12.92;80.59
68439;SHT31;55421;51.600;5.718;2024-03-22T01:59:36;12.91;80.67
68439;SHT31;55421;51.600;5.718;2024-03-22T02:02:03;12.92;80.70
68439;SHT31;55421;51.600;5.718;2024-03-22T02:04:29;12.90;80.70
68439;SHT31;55421;51.600;5.718;2024-03-22T02:06:56;12.89;80.70
68439;SHT31;55421;51.600;5.718;2024-03-22T02:09:22;12.88;80.77
68439;SHT31;55421;51.600;5.718;2024-03-22T02:11:49;12.87;80.80
68439;SHT31;55421;51.600;5.718;2024-03-22T02:14:15;12.85;80.79
68439;SHT31;55421;51.600;5.718;2024-03-22T02:16:42;12.84;80.83
68439;SHT31;55421;51.600;5.718;2024-03-22T02:19:09;12.82;80.87
68439;SHT31;55421;51.600;5.718;2024-03-22T02:21:36;12.83;80.86
68439;SHT31;55421;51.600;5.718;2024-03-22T02:24:02;12.81;80.84
68439;SHT31;55421;51.600;5.718;2024-03-22T02:26:30;12.80;80.90
68439;SHT31;55421;51.600;5.718;2024-03-22T02:28:57;12.80;80.89
68439;SHT31;55421;51.600;5.718;2024-03-22T02:31:23;12.79;80.90
68439;SHT31;55421;51.600;5.718;2024-03-22T02:33:51;12.80;80.90
68439;SHT31;55421;51.600;5.718;2024-03-22T02:36:17;12.77;80.80
68439;SHT31;55421;51.600;5.718;2024-03-22T02:38:44;12.77;80.80
68439;SHT31;55421;51.600;5.718;2024-03-22T02:41:10;12.76;80.86
68439;SHT31;55421;51.600;5.718;2024-03-22T02:43:37;12.76;80.90
68439;SHT31;55421;51.600;5.718;2024-03-22T02:46:04;12.76;80.82
68439;SHT31;55421;51.600;5.718;2024-03-22T02:48:30;12.76;80.83
68439;SHT31;55421;51.600;5.718;2024-03-22T02:50:57;12.76;80.80
68439;SHT31;55421;51.600;5.718;2024-03-22T02:53:24;12.76;80.88
68439;SHT31;55421;51.600;5.718;2024-03-22T02:55:50;12.76;80.89
68439;SHT31;55421;51.600;5.718;2024-03-22T02:58:17;12.76;80.83
68439;SHT31;55421;51.600;5.718;2024-03-22T03:00:46;12.77;80.87
68439;SHT31;55421;51.600;5.718;2024-03-22T03:03:12;12.77;80.90
68439;SHT31;55421;51.600;5.718;2024-03-22T03:05:38;12.77;80.81
68439;SHT31;55421;51.600;5.718;2024-03-22T03:08:07;12.76;80.80
68439;SHT31;55421;51.600;5.718;2024-03-22T03:10:33;12.75;80.80
68439;SHT31;55421;51.600;5.718;2024-03-22T03:12:59;12.73;80.81
68439;SHT31;55421;51.600;5.718;2024-03-22T03:15:26;12.71;80.83
68439;SHT31;55421;51.600;5.718;2024-03-22T03:17:52;12.69;80.84
68439;SHT31;55421;51.600;5.718;2024-03-22T03:20:19;12.67;80.87
68439;SHT31;55421;51.600;5.718;2024-03-22T03:22:45;12.66;80.90
68439;SHT31;55421;51.600;5.718;2024-03-22T03:25:11;12.64;80.90
68439;SHT31;55421;51.600;5.718;2024-03-22T03:27:39;12.62;80.90
68439;SHT31;55421;51.600;5.718;2024-03-22T03:30:05;12.59;80.90
68439;SHT31;55421;51.600;5.718;2024-03-22T03:32:33;12.58;80.93
68439;SHT31;55421;51.600;5.718;2024-03-22T03:34:59;12.57;80.93
68439;SHT31;55421;51.600;5.718;2024-03-22T03:37:25;12.55;80.92
68439;SHT31;55421;51.600;5.718;2024-03-22T03:39:52;12.53;80.92
68439;SHT31;55421;51.600;5.718;2024-03-22T03:42:18;12.53;80.99
68439;SHT31;55421;51.600;5.718;2024-03-22T03:44:44;12.49;80.94
68439;SHT31;55421;51.600;5.718;2024-03-22T03:47:10;12.47;80.97
68439;SHT31;55421;51.600;5.718;2024-03-22T03:49:37;12.46;80.99
68439;SHT31;55421;51.600;5.718;2024-03-22T03:52:03;12.45;81.03
68439;SHT31;55421;51.600;5.718;2024-03-22T03:54:30;12.42;81.08
68439;SHT31;55421;51.600;5.718;2024-03-22T03:56:56;12.42;81.10
68439;SHT31;55421;51.600;5.718;2024-03-22T03:59:23;12.41;81.11
68439;SHT31;55421;51.600;5.718;2024-03-22T04:01:49;12.40;81.10
68439;SHT31;55421;51.600;5.718;2024-03-22T04:04:15;12.40;81.10
68439;SHT31;55421;51.600;5.718;2024-03-22T04:06:43;12.39;81.12
68439;SHT31;55421;51.600;5.718;2024-03-22T04:09:10;12.39;81.10
68439;SHT31;55421;51.600;5.718;2024-03-22T04:11:37;12.38;81.11
68439;SHT31;55421;51.600;5.718;2024-03-22T04:14:04;12.38;81.12
68439;SHT31;55421;51.600;5.718;2024-03-22T04:16:31;12.37;81.12
68439;SHT31;55421;51.600;5.718;2024-03-22T04:18:58;12.36;81.18
68439;SHT31;55421;51.600;5.718;2024-03-22T04:21:26;12.35;81.18
68439;SHT31;55421;51.600;5.718;2024-03-22T04:23:52;12.35;81.20
68439;SHT31;55421;51.600;5.718;2024-03-22T04:26:18;12.33;81.27
68439;SHT31;55421;51.600;5.718;2024-03-22T04:28:45;12.33;81.30
68439;SHT31;55421;51.600;5.718;2024-03-22T04:31:11;12.33;81.30
68439;SHT31;55421;51.600;5.718;2024-03-22T04:33:38;12.33;81.30
68439;SHT31;55421;51.600;5.718;2024-03-22T04:36:04;12.32;81.30
68439;SHT31;55421;51.600;5.718;2024-03-22T04:38:31;12.32;81.30
68439;SHT31;55421;51.600;5.718;2024-03-22T04:40:58;12.32;81.31
68439;SHT31;55421;51.600;5.718;2024-03-22T04:43:24;12.32;81.35
68439;SHT31;55421;51.600;5.718;2024-03-22T04:45:51;12.32;81.37
68439;SHT31;55421;51.600;5.718;2024-03-22T04:48:18;12.30;81.36
68439;SHT31;55421;51.600;5.718;2024-03-22T04:50:47;12.30;81.37
68439;SHT31;55421;51.600;5.718;2024-03-22T04:53:16;12.29;81.40
68439;SHT31;55421;51.600;5.718;2024-03-22T04:55:44;12.29;81.40
68439;SHT31;55421;51.600;5.718;2024-03-22T04:58:15;12.27;81.39
68439;SHT31;55421;51.600;5.718;2024-03-22T05:00:43;12.27;81.40
68439;SHT31;55421;51.600;5.718;2024-03-22T05:03:11;12.26;81.39
68439;SHT31;55421;51.600;5.718;2024-03-22T05:05:38;12.26;81.35
68439;SHT31;55421;51.600;5.718;2024-03-22T05:08:06;12.25;81.31
68439;SHT31;55421;51.600;5.718;2024-03-22T05:10:33;12.24;81.30
68439;SHT31;55421;51.600;5.718;2024-03-22T05:13:00;12.23;81.24
68439;SHT31;55421;51.600;5.718;2024-03-22T05:15:27;12.23;81.20
68439;SHT31;55421;51.600;5.718;2024-03-22T05:17:57;12.22;81.20
68439;SHT31;55421;51.600;5.718;2024-03-22T05:20:24;12.20;81.20
68439;SHT31;55421;51.600;5.718;2024-03-22T05:22:51;12.17;81.20
68439;SHT31;55421;51.600;5.718;2024-03-22T05:25:18;12.16;81.20
68439;SHT31;55421;51.600;5.718;2024-03-22T05:27:45;12.14;81.20
68439;SHT31;55421;51.600;5.718;2024-03-22T05:30:12;12.14;81.19
68439;SHT31;55421;51.600;5.718;2024-03-22T05:32:42;12.11;81.20
68439;SHT31;55421;51.600;5.718;2024-03-22T05:35:08;12.10;81.20
68439;SHT31;55421;51.600;5.718;2024-03-22T05:37:35;12.09;81.21
68439;SHT31;55421;51.600;5.718;2024-03-22T05:40:02;12.08;81.22
68439;SHT31;55421;51.600;5.718;2024-03-22T05:42:32;12.10;81.22
68439;SHT31;55421;51.600;5.718;2024-03-22T05:44:59;12.08;81.20
68439;SHT31;55421;51.600;5.718;2024-03-22T05:47:25;12.09;81.20
68439;SHT31;55421;51.600;5.718;2024-03-22T05:49:52;12.08;81.17
68439;SHT31;55421;51.600;5.718;2024-03-22T05:52:18;12.08;81.14
68439;SHT31;55421;51.600;5.718;2024-03-22T05:54:45;12.08;81.10
68439;SHT31;55421;51.600;5.718;2024-03-22T05:57:11;12.10;81.10
68439;SHT31;55421;51.600;5.718;2024-03-22T05:59:38;12.08;81.03
68439;SHT31;55421;51.600;5.718;2024-03-22T06:02:04;12.09;81.00
68439;SHT31;55421;51.600;5.718;2024-03-22T06:04:31;12.11;80.93
68439;SHT31;55421;51.600;5.718;2024-03-22T06:06:58;12.10;80.90
68439;SHT31;55421;51.600;5.718;2024-03-22T06:09:26;12.11;80.82
68439;SHT31;55421;51.600;5.718;2024-03-22T06:12:12;12.13;80.75
68439;SHT31;55421;51.600;5.718;2024-03-22T06:14:40;12.14;80.79
68439;SHT31;55421;51.600;5.718;2024-03-22T06:17:08;12.15;80.71
68439;SHT31;55421;51.600;5.718;2024-03-22T06:19:35;12.17;80.66
68439;SHT31;55421;51.600;5.718;2024-03-22T06:22:04;12.19;80.56
68439;SHT31;55421;51.600;5.718;2024-03-22T06:24:30;12.20;80.60
68439;SHT31;55421;51.600;5.718;2024-03-22T06:26:57;12.23;80.56
68439;SHT31;55421;51.600;5.718;2024-03-22T06:29:24;12.23;80.42
68439;SHT31;55421;51.600;5.718;2024-03-22T06:31:50;12.25;80.35
68439;SHT31;55421;51.600;5.718;2024-03-22T06:34:18;12.27;80.30
68439;SHT31;55421;51.600;5.718;2024-03-22T06:36:44;12.28;80.21
68439;SHT31;55421;51.600;5.718;2024-03-22T06:39:11;12.28;80.07
68439;SHT31;55421;51.600;5.718;2024-03-22T06:41:37;12.29;80.03
68439;SHT31;55421;51.600;5.718;2024-03-22T06:44:04;12.30;79.94
68439;SHT31;55421;51.600;5.718;2024-03-22T06:46:30;12.31;79.83
68439;SHT31;55421;51.600;5.718;2024-03-22T06:48:57;12.31;79.81
68439;SHT31;55421;51.600;5.718;2024-03-22T06:51:24;12.32;79.75
68439;SHT31;55421;51.600;5.718;2024-03-22T06:53:51;12.32;79.55
68439;SHT31;55421;51.600;5.718;2024-03-22T06:56:17;12.30;79.38
68439;SHT31;55421;51.600;5.718;2024-03-22T06:58:44;12.31;79.34
68439;SHT31;55421;51.600;5.718;2024-03-22T07:01:10;12.30;79.31
68439;SHT31;55421;51.600;5.718;2024-03-22T07:03:37;12.32;79.29
68439;SHT31;55421;51.600;5.718;2024-03-22T07:06:03;12.35;79.24
68439;SHT31;55421;51.600;5.718;2024-03-22T07:08:32;12.38;79.15
68439;SHT31;55421;51.600;5.718;2024-03-22T07:10:58;12.41;79.08
68439;SHT31;55421;51.600;5.718;2024-03-22T07:13:25;12.45;78.94
68439;SHT31;55421;51.600;5.718;2024-03-22T07:15:51;12.45;78.59
68439;SHT31;55421;51.600;5.718;2024-03-22T07:18:18;12.46;78.46
68439;SHT31;55421;51.600;5.718;2024-03-22T07:20:45;12.46;78.18
68439;SHT31;55421;51.600;5.718;2024-03-22T07:23:11;12.46;78.10
68439;SHT31;55421;51.600;5.718;2024-03-22T07:25:38;12.49;78.10
68439;SHT31;55421;51.600;5.718;2024-03-22T07:28:04;12.50;77.95
68439;SHT31;55421;51.600;5.718;2024-03-22T07:30:31;12.55;78.03
68439;SHT31;55421;51.600;5.718;2024-03-22T07:32:57;12.62;78.06
68439;SHT31;55421;51.600;5.718;2024-03-22T07:35:23;12.73;77.91
68439;SHT31;55421;51.600;5.718;2024-03-22T07:37:51;12.86;77.90
68439;SHT31;55421;51.600;5.718;2024-03-22T07:40:17;12.96;77.79
68439;SHT31;55421;51.600;5.718;2024-03-22T07:42:43;13.04;77.51
68439;SHT31;55421;51.600;5.718;2024-03-22T07:45:10;13.05;77.11
68439;SHT31;55421;51.600;5.718;2024-03-22T07:47:36;13.06;76.91
68439;SHT31;55421;51.600;5.718;2024-03-22T07:50:03;13.06;76.52
68439;SHT31;55421;51.600;5.718;2024-03-22T07:52:31;13.08;76.29
68439;SHT31;55421;51.600;5.718;2024-03-22T07:54:58;13.10;76.27
68439;SHT31;55421;51.600;5.718;2024-03-22T07:57:24;13.16;76.54
68439;SHT31;55421;51.600;5.718;2024-03-22T07:59:51;13.21;76.49
68439;SHT31;55421;51.600;5.718;2024-03-22T08:02:17;13.27;76.25
68439;SHT31;55421;51.600;5.718;2024-03-22T08:04:43;13.29;75.89
68439;SHT31;55421;51.600;5.718;2024-03-22T08:07:10;13.28;75.92
68439;SHT31;55421;51.600;5.718;2024-03-22T08:09:36;13.27;75.90
68439;SHT31;55421;51.600;5.718;2024-03-22T08:12:02;13.26;75.82
68439;SHT31;55421;51.600;5.718;2024-03-22T08:14:29;13.23;75.35
68439;SHT31;55421;51.600;5.718;2024-03-22T08:16:55;13.20;75.28
68439;SHT31;55421;51.600;5.718;2024-03-22T08:19:22;13.20;75.45
68439;SHT31;55421;51.600;5.718;2024-03-22T08:21:48;13.21;75.41
68439;SHT31;55421;51.600;5.718;2024-03-22T08:24:15;13.19;75.25
68439;SHT31;55421;51.600;5.718;2024-03-22T08:26:42;13.18;75.41
68439;SHT31;55421;51.600;5.718;2024-03-22T08:29:11;13.19;75.53
68439;SHT31;55421;51.600;5.718;2024-03-22T08:31:37;13.16;75.19
68439;SHT31;55421;51.600;5.718;2024-03-22T08:34:04;13.13;75.34
68439;SHT31;55421;51.600;5.718;2024-03-22T08:36:31;13.11;75.48
68439;SHT31;55421;51.600;5.718;2024-03-22T08:38:58;13.08;75.48
68439;SHT31;55421;51.600;5.718;2024-03-22T08:41:24;13.04;75.55
68439;SHT31;55421;51.600;5.718;2024-03-22T08:43:51;13.03;75.54
68439;SHT31;55421;51.600;5.718;2024-03-22T08:46:17;12.99;75.60
68439;SHT31;55421;51.600;5.718;2024-03-22T08:48:43;12.99;75.70
68439;SHT31;55421;51.600;5.718;2024-03-22T08:51:10;12.98;75.78
68439;SHT31;55421;51.600;5.718;2024-03-22T08:53:38;12.97;75.82
68439;SHT31;55421;51.600;5.718;2024-03-22T08:56:04;12.96;75.76
68439;SHT31;55421;51.600;5.718;2024-03-22T08:58:31;12.98;75.88
68439;SHT31;55421;51.600;5.718;2024-03-22T09:00:57;13.01;75.80
68439;SHT31;55421;51.600;5.718;2024-03-22T09:03:23;13.05;75.65
68439;SHT31;55421;51.600;5.718;2024-03-22T09:05:53;13.11;75.61
68439;SHT31;55421;51.600;5.718;2024-03-22T09:08:20;13.16;75.53
68439;SHT31;55421;51.600;5.718;2024-03-22T09:10:47;13.18;75.41
68439;SHT31;55421;51.600;5.718;2024-03-22T09:13:14;13.20;75.46
68439;SHT31;55421;51.600;5.718;2024-03-22T09:15:40;13.18;75.48
68439;SHT31;55421;51.600;5.718;2024-03-22T09:18:07;13.16;75.32
68439;SHT31;55421;51.600;5.718;2024-03-22T09:20:33;13.15;75.29
68439;SHT31;55421;51.600;5.718;2024-03-22T09:23:00;13.14;75.15
68439;SHT31;55421;51.600;5.718;2024-03-22T09:25:27;13.12;75.21
68439;SHT31;55421;51.600;5.718;2024-03-22T09:27:53;13.09;75.18
68439;SHT31;55421;51.600;5.718;2024-03-22T09:30:19;13.06;75.14
68439;SHT31;55421;51.600;5.718;2024-03-22T09:32:46;13.04;75.12
68439;SHT31;55421;51.600;5.718;2024-03-22T09:35:12;13.03;75.10
68439;SHT31;55421;51.600;5.718;2024-03-22T09:37:43;13.01;75.07
68439;SHT31;55421;51.600;5.718;2024-03-22T09:40:10;13.00;75.07
68439;SHT31;55421;51.600;5.718;2024-03-22T09:42:37;12.99;75.25
68439;SHT31;55421;51.600;5.718;2024-03-22T09:45:07;13.01;75.33
68439;SHT31;55421;51.600;5.718;2024-03-22T09:47:37;13.04;75.52
68439;SHT31;55421;51.600;5.718;2024-03-22T09:50:07;13.07;75.46
68439;SHT31;55421;51.600;5.718;2024-03-22T09:52:36;13.11;75.39
68439;SHT31;55421;51.600;5.718;2024-03-22T09:55:08;13.11;75.04
68439;SHT31;55421;51.600;5.718;2024-03-22T09:57:40;13.10;75.16
68439;SHT31;55421;51.600;5.718;2024-03-22T10:00:10;13.10;75.01
68439;SHT31;55421;51.600;5.718;2024-03-22T10:02:45;13.12;75.13
68439;SHT31;55421;51.600;5.718;2024-03-22T10:05:13;13.14;75.10
68439;SHT31;55421;51.600;5.718;2024-03-22T10:07:40;13.12;74.74
68439;SHT31;55421;51.600;5.718;2024-03-22T10:10:08;13.11;74.71
68439;SHT31;55421;51.600;5.718;2024-03-22T10:12:36;13.10;74.65
68439;SHT31;55421;51.600;5.718;2024-03-22T10:15:05;13.12;74.65
68439;SHT31;55421;51.600;5.718;2024-03-22T10:17:35;13.13;74.59
68439;SHT31;55421;51.600;5.718;2024-03-22T10:20:05;13.14;74.66
68439;SHT31;55421;51.600;5.718;2024-03-22T10:22:41;13.14;74.71
68439;SHT31;55421;51.600;5.718;2024-03-22T10:25:29;13.14;74.38
68439;SHT31;55421;51.600;5.718;2024-03-22T10:27:56;13.12;74.29
68439;SHT31;55421;51.600;5.718;2024-03-22T10:30:25;13.13;74.44
68439;SHT31;55421;51.600;5.718;2024-03-22T10:32:53;13.16;74.56
68439;SHT31;55421;51.600;5.718;2024-03-22T10:35:20;13.20;74.36
68439;SHT31;55421;51.600;5.718;2024-03-22T10:37:47;13.21;74.36
68439;SHT31;55421;51.600;5.718;2024-03-22T10:40:15;13.22;74.27
68439;SHT31;55421;51.600;5.718;2024-03-22T10:42:42;13.21;74.06
68439;SHT31;55421;51.600;5.718;2024-03-22T10:45:10;13.19;74.05
68439;SHT31;55421;51.600;5.718;2024-03-22T10:47:41;13.16;74.13
68439;SHT31;55421;51.600;5.718;2024-03-22T10:50:10;13.15;74.20
68439;SHT31;55421;51.600;5.718;2024-03-22T10:52:38;13.12;74.11
68439;SHT31;55421;51.600;5.718;2024-03-22T10:55:24;13.07;74.11
68439;SHT31;55421;51.600;5.718;2024-03-22T10:58:05;13.04;74.40
68439;SHT31;55421;51.600;5.718;2024-03-22T11:00:34;13.04;74.60
68439;SHT31;55421;51.600;5.718;2024-03-22T11:03:03;13.04;74.67
68439;SHT31;55421;51.600;5.718;2024-03-22T11:05:33;13.04;74.74
68439;SHT31;55421;51.600;5.718;2024-03-22T11:08:02;13.04;74.91
68439;SHT31;55421;51.600;5.718;2024-03-22T11:10:34;13.07;75.09
68439;SHT31;55421;51.600;5.718;2024-03-22T11:13:04;13.07;74.93
68439;SHT31;55421;51.600;5.718;2024-03-22T11:15:37;13.05;74.90
68439;SHT31;55421;51.600;5.718;2024-03-22T11:18:04;13.04;74.89
68439;SHT31;55421;51.600;5.718;2024-03-22T11:20:35;13.02;74.99
68439;SHT31;55421;51.600;5.718;2024-03-22T11:23:03;12.99;75.08
68439;SHT31;55421;51.600;5.718;2024-03-22T11:25:33;12.96;75.24
68439;SHT31;55421;51.600;5.718;2024-03-22T11:28:01;12.96;75.49
68439;SHT31;55421;51.600;5.718;2024-03-22T11:30:29;12.95;75.48
68439;SHT31;55421;51.600;5.718;2024-03-22T11:33:03;12.93;75.58
68439;SHT31;55421;51.600;5.718;2024-03-22T11:35:40;12.91;75.62
68439;SHT31;55421;51.600;5.718;2024-03-22T11:38:07;12.88;75.80
68439;SHT31;55421;51.600;5.718;2024-03-22T11:40:34;12.86;76.10
68439;SHT31;55421;51.600;5.718;2024-03-22T11:43:00;12.86;76.29
68439;SHT31;55421;51.600;5.718;2024-03-22T11:45:29;12.85;76.49
68439;SHT31;55421;51.600;5.718;2024-03-22T11:48:01;12.84;76.81
68439;SHT31;55421;51.600;5.718;2024-03-22T11:50:29;12.85;77.13
68439;SHT31;55421;51.600;5.718;2024-03-22T11:52:55;12.84;77.33
68439;SHT31;55421;51.600;5.718;2024-03-22T11:55:22;12.83;77.37
68439;SHT31;55421;51.600;5.718;2024-03-22T11:57:48;12.83;77.60
68439;SHT31;55421;51.600;5.718;2024-03-22T12:00:18;12.84;77.84
68439;SHT31;55421;51.600;5.718;2024-03-22T12:02:45;12.82;77.93
68439;SHT31;55421;51.600;5.718;2024-03-22T12:05:12;12.79;77.97
68439;SHT31;55421;51.600;5.718;2024-03-22T12:07:39;12.77;78.21
68439;SHT31;55421;51.600;5.718;2024-03-22T12:10:07;12.79;78.34
68439;SHT31;55421;51.600;5.718;2024-03-22T12:12:33;12.78;78.36
68439;SHT31;55421;51.600;5.718;2024-03-22T12:15:00;12.79;78.45
68439;SHT31;55421;51.600;5.718;2024-03-22T12:17:26;12.80;78.59
68439;SHT31;55421;51.600;5.718;2024-03-22T12:19:54;12.81;78.63
68439;SHT31;55421;51.600;5.718;2024-03-22T12:22:21;12.85;78.72
68439;SHT31;55421;51.600;5.718;2024-03-22T12:24:48;12.85;78.66
68439;SHT31;55421;51.600;5.718;2024-03-22T12:27:15;12.83;78.66
68439;SHT31;55421;51.600;5.718;2024-03-22T12:29:41;12.82;78.84
68439;SHT31;55421;51.600;5.718;2024-03-22T12:32:07;12.79;78.86
68439;SHT31;55421;51.600;5.718;2024-03-22T12:34:34;12.78;78.95
68439;SHT31;55421;51.600;5.718;2024-03-22T12:37:00;12.78;79.12
68439;SHT31;55421;51.600;5.718;2024-03-22T12:39:26;12.78;79.18
68439;SHT31;55421;51.600;5.718;2024-03-22T12:41:53;12.74;79.28
68439;SHT31;55421;51.600;5.718;2024-03-22T12:44:20;12.74;79.44
68439;SHT31;55421;51.600;5.718;2024-03-22T12:46:47;12.73;79.61
68439;SHT31;55421;51.600;5.718;2024-03-22T12:49:13;12.72;79.64
68439;SHT31;55421;51.600;5.718;2024-03-22T12:51:39;12.72;79.72
68439;SHT31;55421;51.600;5.718;2024-03-22T12:54:07;12.70;79.79
68439;SHT31;55421;51.600;5.718;2024-03-22T12:56:34;12.69;79.83
68439;SHT31;55421;51.600;5.718;2024-03-22T12:59:02;12.65;79.83
68439;SHT31;55421;51.600;5.718;2024-03-22T13:01:29;12.63;79.93
68439;SHT31;55421;51.600;5.718;2024-03-22T13:03:55;12.61;80.01
68439;SHT31;55421;51.600;5.718;2024-03-22T13:06:22;12.59;80.00
68439;SHT31;55421;51.600;5.718;2024-03-22T13:08:49;12.60;80.10
68439;SHT31;55421;51.600;5.718;2024-03-22T13:11:15;12.63;80.32
68439;SHT31;55421;51.600;5.718;2024-03-22T13:13:43;12.65;80.39
68439;SHT31;55421;51.600;5.718;2024-03-22T13:16:09;12.64;80.38
68439;SHT31;55421;51.600;5.718;2024-03-22T13:18:41;12.62;80.49
68439;SHT31;55421;51.600;5.718;2024-03-22T13:21:08;12.61;80.63
68439;SHT31;55421;51.600;5.718;2024-03-22T13:23:34;12.58;80.87
68439;SHT31;55421;51.600;5.718;2024-03-22T13:26:04;12.55;81.03
68439;SHT31;55421;51.600;5.718;2024-03-22T13:28:32;12.54;81.20
68439;SHT31;55421;51.600;5.718;2024-03-22T13:31:00;12.50;81.24
68439;SHT31;55421;51.600;5.718;2024-03-22T13:33:35;12.49;81.37
68439;SHT31;55421;51.600;5.718;2024-03-22T13:36:02;12.46;81.40
68439;SHT31;55421;51.600;5.718;2024-03-22T13:38:31;12.48;81.55
68439;SHT31;55421;51.600;5.718;2024-03-22T13:40:58;12.47;81.57
68439;SHT31;55421;51.600;5.718;2024-03-22T13:43:26;12.48;81.70
68439;SHT31;55421;51.600;5.718;2024-03-22T13:45:53;12.49;81.84
68439;SHT31;55421;51.600;5.718;2024-03-22T13:48:24;12.52;81.93
68439;SHT31;55421;51.600;5.718;2024-03-22T13:50:51;12.56;82.02
68439;SHT31;55421;51.600;5.718;2024-03-22T13:53:19;12.58;82.05
68439;SHT31;55421;51.600;5.718;2024-03-22T13:55:50;12.61;82.20
68439;SHT31;55421;51.600;5.718;2024-03-22T13:58:17;12.66;82.25
68439;SHT31;55421;51.600;5.718;2024-03-22T14:00:44;12.66;82.22
68439;SHT31;55421;51.600;5.718;2024-03-22T14:03:11;12.67;82.29
68439;SHT31;55421;51.600;5.718;2024-03-22T14:05:37;12.66;82.30
68439;SHT31;55421;51.600;5.718;2024-03-22T14:08:03;12.64;82.35
68439;SHT31;55421;51.600;5.718;2024-03-22T14:10:30;12.62;82.44
68439;SHT31;55421;51.600;5.718;2024-03-22T14:12:57;12.61;82.57
68439;SHT31;55421;51.600;5.718;2024-03-22T14:15:24;12.61;82.61
68439;SHT31;55421;51.600;5.718;2024-03-22T14:17:52;12.60;82.70
68439;SHT31;55421;51.600;5.718;2024-03-22T14:20:19;12.60;82.70
68439;SHT31;55421;51.600;5.718;2024-03-22T14:22:46;12.59;82.79
68439;SHT31;55421;51.600;5.718;2024-03-22T14:25:13;12.59;82.80
68439;SHT31;55421;51.600;5.718;2024-03-22T14:27:40;12.55;82.80
68439;SHT31;55421;51.600;5.718;2024-03-22T14:30:11;12.50;82.80
68439;SHT31;55421;51.600;5.718;2024-03-22T14:32:40;12.43;82.80
68439;SHT31;55421;51.600;5.718;2024-03-22T14:35:07;12.34;82.95
68439;SHT31;55421;51.600;5.718;2024-03-22T14:37:35;12.23;82.77
68439;SHT31;55421;51.600;5.718;2024-03-22T14:40:01;12.15;82.66
68439;SHT31;55421;51.600;5.718;2024-03-22T14:42:31;12.07;82.60
68439;SHT31;55421;51.600;5.718;2024-03-22T14:44:58;12.04;82.70
68439;SHT31;55421;51.600;5.718;2024-03-22T14:47:24;12.03;82.79
68439;SHT31;55421;51.600;5.718;2024-03-22T14:49:51;12.06;83.05
68439;SHT31;55421;51.600;5.718;2024-03-22T14:52:17;12.10;82.96
68439;SHT31;55421;51.600;5.718;2024-03-22T14:54:44;12.09;82.60
68439;SHT31;55421;51.600;5.718;2024-03-22T14:57:10;12.07;82.62
68439;SHT31;55421;51.600;5.718;2024-03-22T14:59:37;12.11;82.82
68439;SHT31;55421;51.600;5.718;2024-03-22T15:02:03;12.13;82.89
68439;SHT31;55421;51.600;5.718;2024-03-22T15:04:30;12.17;82.80
68439;SHT31;55421;51.600;5.718;2024-03-22T15:06:56;12.21;82.74
68439;SHT31;55421;51.600;5.718;2024-03-22T15:09:23;12.24;82.62
68439;SHT31;55421;51.600;5.718;2024-03-22T15:11:49;12.23;82.42
68439;SHT31;55421;51.600;5.718;2024-03-22T15:14:16;12.23;82.39
68439;SHT31;55421;51.600;5.718;2024-03-22T15:16:43;12.22;82.48
68439;SHT31;55421;51.600;5.718;2024-03-22T15:19:09;12.25;82.58
68439;SHT31;55421;51.600;5.718;2024-03-22T15:21:36;12.28;82.60
68439;SHT31;55421;51.600;5.718;2024-03-22T15:24:04;12.27;82.45
68439;SHT31;55421;51.600;5.718;2024-03-22T15:26:31;12.28;82.50
68439;SHT31;55421;51.600;5.718;2024-03-22T15:28:59;12.27;82.39
68439;SHT31;55421;51.600;5.718;2024-03-22T15:31:26;12.26;82.27